sensor_id;sensor_type;location;lat;lon;timestamp;P1;durP1;ratioP1;P2;durP2;ratioP2
13611;SDS011;6877;51.436;6.774;2024-03-02T00:00:44;3.70;;;2.33;;
13611;SDS011;6877;51.436;6.774;2024-03-02T00:03:21;3.13;;;2.35;;
13611;SDS011;6877;51.436;6.774;2024-03-02T00:05:50;2.80;;;2.17;;
13611;SDS011;6877;51.436;6.774;2024-03-02T00:08:25;2.40;;;2.20;;
13611;SDS011;6877;51.436;6.774;2024-03-02T00:10:52;4.07;;;2.40;;
13611;SDS011;6877;51.436;6.774;2024-03-02T00:13:24;2.47;;;2.25;;
13611;SDS011;6877;51.436;6.774;2024-03-02T00:15:54;4.40;;;2.50;;
13611;SDS011;6877;51.436;6.774;2024-03-02T00:18:31;4.32;;;2.85;;
13611;SDS011;6877;51.436;6.774;2024-03-02T00:21:05;3.17;;;2.42;;
13611;SDS011;6877;51.436;6.774;2024-03-02T00:23:35;3.40;;;2.38;;
13611;SDS011;6877;51.436;6.774;2024-03-02T00:26:03;2.75;;;2.40;;
13611;SDS011;6877;51.436;6.774;2024-03-02T00:28:31;4.78;;;2.47;;
13611;SDS011;6877;51.436;6.774;2024-03-02T00:31:09;4.88;;;2.65;;
13611;SDS011;6877;51.436;6.774;2024-03-02T00:33:41;2.10;;;1.90;;
13611;SDS011;6877;51.436;6.774;2024-03-02T00:36:10;4.25;;;2.50;;
13611;SDS011;6877;51.436;6.774;2024-03-02T00:38:47;3.80;;;2.20;;
13611;SDS011;6877;51.436;6.774;2024-03-02T00:46:24;2.50;;;2.30;;
13611;SDS011;6877;51.436;6.774;2024-03-02T00:48:57;3.03;;;2.28;;
13611;SDS011;6877;51.436;6.774;2024-03-02T00:51:26;2.83;;;2.28;;
13611;SDS011;6877;51.436;6.774;2024-03-02T00:53:54;4.55;;;2.20;;
13611;SDS011;6877;51.436;6.774;2024-03-02T00:56:29;2.05;;;1.88;;
13611;SDS011;6877;51.436;6.774;2024-03-02T00:59:01;5.50;;;2.20;;
13611;SDS011;6877;51.436;6.774;2024-03-02T01:01:28;3.78;;;2.28;;
13611;SDS011;6877;51.436;6.774;2024-03-02T01:03:55;4.25;;;1.90;;
13611;SDS011;6877;51.436;6.774;2024-03-02T01:06:21;4.10;;;2.50;;
13611;SDS011;6877;51.436;6.774;2024-03-02T01:08:48;3.88;;;2.92;;
13611;SDS011;6877;51.436;6.774;2024-03-02T01:11:17;2.42;;;2.17;;
13611;SDS011;6877;51.436;6.774;2024-03-02T01:13:44;2.97;;;2.08;;
13611;SDS011;6877;51.436;6.774;2024-03-02T01:16:12;2.35;;;2.10;;
13611;SDS011;6877;51.436;6.774;2024-03-02T01:18:39;2.50;;;2.30;;
13611;SDS011;6877;51.436;6.774;2024-03-02T01:21:10;3.95;;;2.58;;
13611;SDS011;6877;51.436;6.774;2024-03-02T01:23:37;7.07;;;2.03;;
13611;SDS011;6877;51.436;6.774;2024-03-02T01:26:09;1.90;;;1.80;;
13611;SDS011;6877;51.436;6.774;2024-03-02T01:28:35;3.35;;;2.20;;
13611;SDS011;6877;51.436;6.774;2024-03-02T01:31:06;3.08;;;2.15;;
13611;SDS011;6877;51.436;6.774;2024-03-02T01:33:33;2.22;;;1.88;;
13611;SDS011;6877;51.436;6.774;2024-03-02T01:35:59;2.72;;;2.28;;
13611;SDS011;6877;51.436;6.774;2024-03-02T01:38:26;2.60;;;2.03;;
13611;SDS011;6877;51.436;6.774;2024-03-02T01:40:54;7.47;;;2.15;;
13611;SDS011;6877;51.436;6.774;2024-03-02T01:43:22;3.58;;;2.10;;
13611;SDS011;6877;51.436;6.774;2024-03-02T01:45:49;2.22;;;2.00;;
13611;SDS011;6877;51.436;6.774;2024-03-02T01:48:15;2.25;;;2.00;;
13611;SDS011;6877;51.436;6.774;2024-03-02T01:50:47;2.47;;;1.92;;
13611;SDS011;6877;51.436;6.774;2024-03-02T01:53:19;3.08;;;2.17;;
13611;SDS011;6877;51.436;6.774;2024-03-02T01:55:45;2.75;;;2.30;;
13611;SDS011;6877;51.436;6.774;2024-03-02T01:58:11;3.72;;;2.22;;
13611;SDS011;6877;51.436;6.774;2024-03-02T02:00:38;2.53;;;2.22;;
13611;SDS011;6877;51.436;6.774;2024-03-02T02:03:05;2.97;;;2.45;;
13611;SDS011;6877;51.436;6.774;2024-03-02T02:05:33;3.35;;;2.10;;
13611;SDS011;6877;51.436;6.774;2024-03-02T02:08:01;2.20;;;1.98;;
13611;SDS011;6877;51.436;6.774;2024-03-02T02:10:27;3.05;;;2.10;;
13611;SDS011;6877;51.436;6.774;2024-03-02T02:12:54;2.28;;;2.08;;
13611;SDS011;6877;51.436;6.774;2024-03-02T02:15:26;5.63;;;2.47;;
13611;SDS011;6877;51.436;6.774;2024-03-02T02:17:58;2.40;;;2.00;;
13611;SDS011;6877;51.436;6.774;2024-03-02T02:20:25;4.15;;;2.20;;
13611;SDS011;6877;51.436;6.774;2024-03-02T02:25:25;1.95;;;1.85;;
13611;SDS011;6877;51.436;6.774;2024-03-02T02:27:52;3.88;;;1.50;;
13611;SDS011;6877;51.436;6.774;2024-03-02T02:30:23;2.08;;;1.92;;
13611;SDS011;6877;51.436;6.774;2024-03-02T02:32:56;1.70;;;1.60;;
13611;SDS011;6877;51.436;6.774;2024-03-02T02:35:22;2.22;;;2.00;;
13611;SDS011;6877;51.436;6.774;2024-03-02T02:37:57;2.90;;;1.90;;
13611;SDS011;6877;51.436;6.774;2024-03-02T02:40:30;1.85;;;1.60;;
13611;SDS011;6877;51.436;6.774;2024-03-02T02:43:01;3.47;;;1.90;;
13611;SDS011;6877;51.436;6.774;2024-03-02T02:45:28;2.67;;;2.00;;
13611;SDS011;6877;51.436;6.774;2024-03-02T02:47:54;2.95;;;1.80;;
13611;SDS011;6877;51.436;6.774;2024-03-02T02:50:21;2.42;;;2.20;;
13611;SDS011;6877;51.436;6.774;2024-03-02T02:52:47;2.92;;;2.28;;
13611;SDS011;6877;51.436;6.774;2024-03-02T02:55:19;2.13;;;1.90;;
13611;SDS011;6877;51.436;6.774;2024-03-02T02:57:45;3.03;;;2.10;;
13611;SDS011;6877;51.436;6.774;2024-03-02T03:00:13;4.72;;;2.15;;
13611;SDS011;6877;51.436;6.774;2024-03-02T03:02:41;3.17;;;1.98;;
13611;SDS011;6877;51.436;6.774;2024-03-02T03:05:13;2.10;;;1.80;;
13611;SDS011;6877;51.436;6.774;2024-03-02T03:07:41;3.88;;;2.55;;
13611;SDS011;6877;51.436;6.774;2024-03-02T03:10:08;1.80;;;1.70;;
13611;SDS011;6877;51.436;6.774;2024-03-02T03:12:39;2.00;;;1.90;;
13611;SDS011;6877;51.436;6.774;2024-03-02T03:15:13;5.88;;;2.10;;
13611;SDS011;6877;51.436;6.774;2024-03-02T03:17:40;4.45;;;2.42;;
13611;SDS011;6877;51.436;6.774;2024-03-02T03:20:06;2.67;;;2.25;;
13611;SDS011;6877;51.436;6.774;2024-03-02T03:22:36;2.20;;;2.00;;
13611;SDS011;6877;51.436;6.774;2024-03-02T03:25:03;2.10;;;1.90;;
13611;SDS011;6877;51.436;6.774;2024-03-02T03:27:30;2.33;;;2.13;;
13611;SDS011;6877;51.436;6.774;2024-03-02T03:29:57;2.70;;;2.20;;
13611;SDS011;6877;51.436;6.774;2024-03-02T03:32:23;2.05;;;1.80;;
13611;SDS011;6877;51.436;6.774;2024-03-02T03:34:49;2.38;;;2.00;;
13611;SDS011;6877;51.436;6.774;2024-03-02T03:37:16;4.97;;;2.10;;
13611;SDS011;6877;51.436;6.774;2024-03-02T03:39:43;11.52;;;2.50;;
13611;SDS011;6877;51.436;6.774;2024-03-02T03:42:09;5.28;;;2.13;;
13611;SDS011;6877;51.436;6.774;2024-03-02T03:44:36;3.08;;;2.17;;
13611;SDS011;6877;51.436;6.774;2024-03-02T03:47:07;2.25;;;2.00;;
13611;SDS011;6877;51.436;6.774;2024-03-02T03:49:33;2.08;;;1.90;;
13611;SDS011;6877;51.436;6.774;2024-03-02T03:52:05;2.65;;;2.20;;
13611;SDS011;6877;51.436;6.774;2024-03-02T03:54:36;3.60;;;2.40;;
13611;SDS011;6877;51.436;6.774;2024-03-02T03:57:09;7.78;;;2.50;;
13611;SDS011;6877;51.436;6.774;2024-03-02T03:59:40;4.43;;;2.63;;
13611;SDS011;6877;51.436;6.774;2024-03-02T04:02:07;5.65;;;2.45;;
13611;SDS011;6877;51.436;6.774;2024-03-02T04:04:39;2.42;;;1.95;;
13611;SDS011;6877;51.436;6.774;2024-03-02T04:07:05;4.07;;;2.47;;
13611;SDS011;6877;51.436;6.774;2024-03-02T04:09:32;2.55;;;2.20;;
13611;SDS011;6877;51.436;6.774;2024-03-02T04:12:04;4.85;;;2.58;;
13611;SDS011;6877;51.436;6.774;2024-03-02T04:14:30;3.67;;;2.38;;
13611;SDS011;6877;51.436;6.774;2024-03-02T04:16:57;5.80;;;2.67;;
13611;SDS011;6877;51.436;6.774;2024-03-02T04:19:28;4.00;;;2.42;;
13611;SDS011;6877;51.436;6.774;2024-03-02T04:21:54;4.13;;;2.50;;
13611;SDS011;6877;51.436;6.774;2024-03-02T04:24:21;3.40;;;2.42;;
13611;SDS011;6877;51.436;6.774;2024-03-02T04:26:47;3.53;;;2.83;;
13611;SDS011;6877;51.436;6.774;2024-03-02T04:29:19;3.90;;;2.67;;
13611;SDS011;6877;51.436;6.774;2024-03-02T04:31:45;4.32;;;1.98;;
13611;SDS011;6877;51.436;6.774;2024-03-02T04:34:12;3.45;;;2.47;;
13611;SDS011;6877;51.436;6.774;2024-03-02T04:36:43;3.33;;;2.20;;
13611;SDS011;6877;51.436;6.774;2024-03-02T04:39:09;2.80;;;2.50;;
13611;SDS011;6877;51.436;6.774;2024-03-02T04:41:36;2.25;;;2.10;;
13611;SDS011;6877;51.436;6.774;2024-03-02T04:44:02;3.55;;;2.42;;
13611;SDS011;6877;51.436;6.774;2024-03-02T04:46:29;3.03;;;2.22;;
13611;SDS011;6877;51.436;6.774;2024-03-02T04:48:55;6.70;;;4.82;;
13611;SDS011;6877;51.436;6.774;2024-03-02T04:51:23;2.53;;;2.33;;
13611;SDS011;6877;51.436;6.774;2024-03-02T04:53:49;5.28;;;2.05;;
13611;SDS011;6877;51.436;6.774;2024-03-02T04:56:21;2.22;;;2.03;;
13611;SDS011;6877;51.436;6.774;2024-03-02T04:59:13;3.47;;;2.20;;
13611;SDS011;6877;51.436;6.774;2024-03-02T05:01:40;5.43;;;2.30;;
13611;SDS011;6877;51.436;6.774;2024-03-02T05:04:06;3.60;;;2.33;;
13611;SDS011;6877;51.436;6.774;2024-03-02T05:06:33;3.30;;;2.10;;
13611;SDS011;6877;51.436;6.774;2024-03-02T05:08:59;3.85;;;2.30;;
13611;SDS011;6877;51.436;6.774;2024-03-02T05:11:26;4.72;;;2.28;;
13611;SDS011;6877;51.436;6.774;2024-03-02T05:14:12;3.75;;;2.50;;
13611;SDS011;6877;51.436;6.774;2024-03-02T05:16:38;4.18;;;2.30;;
13611;SDS011;6877;51.436;6.774;2024-03-02T05:19:06;3.65;;;2.33;;
13611;SDS011;6877;51.436;6.774;2024-03-02T05:21:33;3.22;;;2.17;;
13611;SDS011;6877;51.436;6.774;2024-03-02T05:24:05;3.15;;;2.03;;
13611;SDS011;6877;51.436;6.774;2024-03-02T05:26:31;2.45;;;2.25;;
13611;SDS011;6877;51.436;6.774;2024-03-02T05:28:58;4.50;;;2.28;;
13611;SDS011;6877;51.436;6.774;2024-03-02T05:31:24;3.63;;;2.50;;
13611;SDS011;6877;51.436;6.774;2024-03-02T05:33:56;3.33;;;2.25;;
13611;SDS011;6877;51.436;6.774;2024-03-02T05:36:28;2.10;;;1.90;;
13611;SDS011;6877;51.436;6.774;2024-03-02T05:38:59;3.58;;;2.10;;
13611;SDS011;6877;51.436;6.774;2024-03-02T05:41:25;3.58;;;2.25;;
13611;SDS011;6877;51.436;6.774;2024-03-02T05:43:57;2.67;;;2.03;;
13611;SDS011;6877;51.436;6.774;2024-03-02T05:46:24;4.22;;;2.30;;
13611;SDS011;6877;51.436;6.774;2024-03-02T05:48:50;5.45;;;2.63;;
13611;SDS011;6877;51.436;6.774;2024-03-02T05:51:17;2.40;;;2.20;;
13611;SDS011;6877;51.436;6.774;2024-03-02T05:53:48;2.42;;;2.00;;
13611;SDS011;6877;51.436;6.774;2024-03-02T05:56:14;6.03;;;2.33;;
13611;SDS011;6877;51.436;6.774;2024-03-02T05:58:46;4.57;;;3.00;;
13611;SDS011;6877;51.436;6.774;2024-03-02T06:01:41;6.05;;;2.20;;
13611;SDS011;6877;51.436;6.774;2024-03-02T06:04:14;5.78;;;2.53;;
13611;SDS011;6877;51.436;6.774;2024-03-02T06:06:45;2.00;;;1.90;;
13611;SDS011;6877;51.436;6.774;2024-03-02T06:09:12;2.65;;;2.00;;
13611;SDS011;6877;51.436;6.774;2024-03-02T06:11:43;4.43;;;2.75;;
13611;SDS011;6877;51.436;6.774;2024-03-02T06:14:10;5.32;;;2.40;;
13611;SDS011;6877;51.436;6.774;2024-03-02T06:16:36;1.85;;;1.75;;
13611;SDS011;6877;51.436;6.774;2024-03-02T06:19:03;2.60;;;2.38;;
13611;SDS011;6877;51.436;6.774;2024-03-02T06:21:29;1.90;;;1.80;;
13611;SDS011;6877;51.436;6.774;2024-03-02T06:24:01;4.15;;;2.38;;
13611;SDS011;6877;51.436;6.774;2024-03-02T06:26:27;2.75;;;2.33;;
13611;SDS011;6877;51.436;6.774;2024-03-02T06:28:55;7.18;;;2.38;;
13611;SDS011;6877;51.436;6.774;2024-03-02T06:31:26;4.15;;;2.40;;
13611;SDS011;6877;51.436;6.774;2024-03-02T06:33:52;5.40;;;1.90;;
13611;SDS011;6877;51.436;6.774;2024-03-02T06:36:19;4.35;;;2.75;;
13611;SDS011;6877;51.436;6.774;2024-03-02T06:38:50;2.95;;;2.00;;
13611;SDS011;6877;51.436;6.774;2024-03-02T06:41:17;5.03;;;2.65;;
13611;SDS011;6877;51.436;6.774;2024-03-02T06:43:43;8.32;;;2.95;;
13611;SDS011;6877;51.436;6.774;2024-03-02T06:46:10;3.25;;;2.80;;
13611;SDS011;6877;51.436;6.774;2024-03-02T06:48:40;3.90;;;2.08;;
13611;SDS011;6877;51.436;6.774;2024-03-02T06:51:11;2.38;;;2.03;;
13611;SDS011;6877;51.436;6.774;2024-03-02T06:53:38;2.65;;;2.15;;
13611;SDS011;6877;51.436;6.774;2024-03-02T06:56:04;3.97;;;2.58;;
13611;SDS011;6877;51.436;6.774;2024-03-02T06:58:32;3.45;;;2.47;;
13611;SDS011;6877;51.436;6.774;2024-03-02T07:00:59;2.65;;;2.45;;
13611;SDS011;6877;51.436;6.774;2024-03-02T07:03:26;3.40;;;2.47;;
13611;SDS011;6877;51.436;6.774;2024-03-02T07:05:52;2.70;;;2.13;;
13611;SDS011;6877;51.436;6.774;2024-03-02T07:08:19;2.80;;;2.50;;
13611;SDS011;6877;51.436;6.774;2024-03-02T07:10:45;4.10;;;2.45;;
13611;SDS011;6877;51.436;6.774;2024-03-02T07:13:13;3.28;;;2.28;;
13611;SDS011;6877;51.436;6.774;2024-03-02T07:15:39;2.72;;;2.05;;
13611;SDS011;6877;51.436;6.774;2024-03-02T07:18:24;2.65;;;1.98;;
13611;SDS011;6877;51.436;6.774;2024-03-02T07:20:50;4.88;;;2.60;;
13611;SDS011;6877;51.436;6.774;2024-03-02T07:23:17;3.88;;;2.58;;
13611;SDS011;6877;51.436;6.774;2024-03-02T07:25:49;1.95;;;1.77;;
13611;SDS011;6877;51.436;6.774;2024-03-02T07:28:21;3.38;;;2.38;;
13611;SDS011;6877;51.436;6.774;2024-03-02T07:30:59;3.72;;;2.60;;
13611;SDS011;6877;51.436;6.774;2024-03-02T07:33:35;2.97;;;2.40;;
13611;SDS011;6877;51.436;6.774;2024-03-02T07:36:01;6.00;;;2.60;;
13611;SDS011;6877;51.436;6.774;2024-03-02T07:38:28;3.80;;;2.58;;
13611;SDS011;6877;51.436;6.774;2024-03-02T07:40:55;8.57;;;2.88;;
13611;SDS011;6877;51.436;6.774;2024-03-02T07:43:22;3.67;;;2.50;;
13611;SDS011;6877;51.436;6.774;2024-03-02T07:45:54;3.92;;;2.65;;
13611;SDS011;6877;51.436;6.774;2024-03-02T07:48:26;3.10;;;2.80;;
13611;SDS011;6877;51.436;6.774;2024-03-02T07:50:53;5.95;;;2.50;;
13611;SDS011;6877;51.436;6.774;2024-03-02T07:53:24;3.33;;;2.25;;
13611;SDS011;6877;51.436;6.774;2024-03-02T07:55:51;9.75;;;2.67;;
13611;SDS011;6877;51.436;6.774;2024-03-02T07:58:23;3.78;;;2.75;;
13611;SDS011;6877;51.436;6.774;2024-03-02T08:00:54;4.00;;;2.30;;
13611;SDS011;6877;51.436;6.774;2024-03-02T08:03:25;4.53;;;2.63;;
13611;SDS011;6877;51.436;6.774;2024-03-02T08:05:52;3.45;;;2.25;;
13611;SDS011;6877;51.436;6.774;2024-03-02T08:08:23;7.55;;;3.95;;
13611;SDS011;6877;51.436;6.774;2024-03-02T08:10:55;3.38;;;2.60;;
13611;SDS011;6877;51.436;6.774;2024-03-02T08:13:26;4.82;;;2.50;;
13611;SDS011;6877;51.436;6.774;2024-03-02T08:15:58;3.55;;;2.45;;
13611;SDS011;6877;51.436;6.774;2024-03-02T08:18:25;3.58;;;3.08;;
13611;SDS011;6877;51.436;6.774;2024-03-02T08:20:51;4.47;;;2.10;;
13611;SDS011;6877;51.436;6.774;2024-03-02T08:23:18;4.10;;;2.17;;
13611;SDS011;6877;51.436;6.774;2024-03-02T08:25:49;3.60;;;2.20;;
13611;SDS011;6877;51.436;6.774;2024-03-02T08:28:22;3.42;;;1.92;;
13611;SDS011;6877;51.436;6.774;2024-03-02T08:30:49;5.43;;;2.75;;
13611;SDS011;6877;51.436;6.774;2024-03-02T08:33:15;5.95;;;2.17;;
13611;SDS011;6877;51.436;6.774;2024-03-02T08:35:46;2.90;;;2.15;;
13611;SDS011;6877;51.436;6.774;2024-03-02T08:38:18;3.95;;;2.33;;
13611;SDS011;6877;51.436;6.774;2024-03-02T08:40:50;7.78;;;2.58;;
13611;SDS011;6877;51.436;6.774;2024-03-02T08:43:16;2.10;;;1.60;;
13611;SDS011;6877;51.436;6.774;2024-03-02T08:45:43;8.05;;;2.10;;
13611;SDS011;6877;51.436;6.774;2024-03-02T08:48:10;4.07;;;2.13;;
13611;SDS011;6877;51.436;6.774;2024-03-02T08:50:42;3.05;;;1.48;;
13611;SDS011;6877;51.436;6.774;2024-03-02T08:53:08;2.67;;;1.65;;
13611;SDS011;6877;51.436;6.774;2024-03-02T08:55:35;2.85;;;1.70;;
13611;SDS011;6877;51.436;6.774;2024-03-02T08:58:06;2.80;;;2.08;;
13611;SDS011;6877;51.436;6.774;2024-03-02T09:00:33;1.73;;;1.52;;
13611;SDS011;6877;51.436;6.774;2024-03-02T09:03:00;3.03;;;1.73;;
13611;SDS011;6877;51.436;6.774;2024-03-02T09:05:26;2.10;;;1.85;;
13611;SDS011;6877;51.436;6.774;2024-03-02T09:07:53;3.85;;;1.50;;
13611;SDS011;6877;51.436;6.774;2024-03-02T09:10:19;2.65;;;1.55;;
13611;SDS011;6877;51.436;6.774;2024-03-02T09:12:46;3.08;;;1.80;;
13611;SDS011;6877;51.436;6.774;2024-03-02T09:15:17;1.73;;;1.55;;
13611;SDS011;6877;51.436;6.774;2024-03-02T09:17:44;2.00;;;1.30;;
13611;SDS011;6877;51.436;6.774;2024-03-02T09:20:11;5.25;;;2.20;;
13611;SDS011;6877;51.436;6.774;2024-03-02T09:22:43;5.05;;;1.25;;
13611;SDS011;6877;51.436;6.774;2024-03-02T09:25:14;2.95;;;1.48;;
13611;SDS011;6877;51.436;6.774;2024-03-02T09:27:42;1.35;;;1.23;;
13611;SDS011;6877;51.436;6.774;2024-03-02T09:30:08;2.75;;;1.50;;
13611;SDS011;6877;51.436;6.774;2024-03-02T09:32:41;2.03;;;1.50;;
13611;SDS011;6877;51.436;6.774;2024-03-02T09:35:07;4.50;;;1.40;;
13611;SDS011;6877;51.436;6.774;2024-03-02T09:37:35;5.40;;;1.60;;
13611;SDS011;6877;51.436;6.774;2024-03-02T09:40:09;1.05;;;1.00;;
13611;SDS011;6877;51.436;6.774;2024-03-02T09:42:41;1.40;;;1.27;;
13611;SDS011;6877;51.436;6.774;2024-03-02T09:45:08;4.70;;;1.73;;
13611;SDS011;6877;51.436;6.774;2024-03-02T09:47:40;4.28;;;1.70;;
13611;SDS011;6877;51.436;6.774;2024-03-02T09:50:08;3.00;;;1.40;;
13611;SDS011;6877;51.436;6.774;2024-03-02T09:52:35;2.08;;;1.30;;
13611;SDS011;6877;51.436;6.774;2024-03-02T09:55:08;2.58;;;1.00;;
13611;SDS011;6877;51.436;6.774;2024-03-02T09:57:39;2.40;;;1.13;;
13611;SDS011;6877;51.436;6.774;2024-03-02T10:00:08;3.40;;;1.90;;
13611;SDS011;6877;51.436;6.774;2024-03-02T10:02:41;1.45;;;1.10;;
13611;SDS011;6877;51.436;6.774;2024-03-02T10:05:08;2.72;;;1.15;;
13611;SDS011;6877;51.436;6.774;2024-03-02T10:07:35;5.38;;;1.48;;
13611;SDS011;6877;51.436;6.774;2024-03-02T10:10:13;2.05;;;1.63;;
13611;SDS011;6877;51.436;6.774;2024-03-02T10:12:41;1.45;;;1.00;;
13611;SDS011;6877;51.436;6.774;2024-03-02T10:15:15;4.43;;;1.30;;
13611;SDS011;6877;51.436;6.774;2024-03-02T10:17:55;3.42;;;1.10;;
13611;SDS011;6877;51.436;6.774;2024-03-02T10:20:27;2.40;;;1.30;;
13611;SDS011;6877;51.436;6.774;2024-03-02T10:25:37;2.25;;;1.55;;
13611;SDS011;6877;51.436;6.774;2024-03-02T10:28:09;2.08;;;0.98;;
13611;SDS011;6877;51.436;6.774;2024-03-02T10:30:35;2.70;;;1.08;;
13611;SDS011;6877;51.436;6.774;2024-03-02T10:33:07;2.10;;;1.10;;
13611;SDS011;6877;51.436;6.774;2024-03-02T10:35:35;4.63;;;1.45;;
13611;SDS011;6877;51.436;6.774;2024-03-02T10:38:08;3.70;;;1.13;;
13611;SDS011;6877;51.436;6.774;2024-03-02T10:40:46;2.53;;;1.48;;
13611;SDS011;6877;51.436;6.774;2024-03-02T10:43:18;2.67;;;1.30;;
13611;SDS011;6877;51.436;6.774;2024-03-02T10:45:51;2.45;;;1.15;;
13611;SDS011;6877;51.436;6.774;2024-03-02T10:48:24;2.38;;;1.25;;
13611;SDS011;6877;51.436;6.774;2024-03-02T10:50:58;1.33;;;1.15;;
13611;SDS011;6877;51.436;6.774;2024-03-02T10:53:27;1.13;;;1.02;;
13611;SDS011;6877;51.436;6.774;2024-03-02T10:55:57;2.67;;;1.38;;
13611;SDS011;6877;51.436;6.774;2024-03-02T10:58:33;4.30;;;0.98;;
13611;SDS011;6877;51.436;6.774;2024-03-02T11:01:01;3.00;;;1.30;;
13611;SDS011;6877;51.436;6.774;2024-03-02T11:03:33;4.25;;;1.00;;
13611;SDS011;6877;51.436;6.774;2024-03-02T11:06:03;1.92;;;1.10;;
13611;SDS011;6877;51.436;6.774;2024-03-02T11:08:39;1.65;;;0.90;;
13611;SDS011;6877;51.436;6.774;2024-03-02T11:11:07;1.80;;;0.93;;
13611;SDS011;6877;51.436;6.774;2024-03-02T11:13:41;3.40;;;1.02;;
13611;SDS011;6877;51.436;6.774;2024-03-02T11:16:34;1.58;;;0.98;;
13611;SDS011;6877;51.436;6.774;2024-03-02T11:19:06;1.10;;;1.00;;
13611;SDS011;6877;51.436;6.774;2024-03-02T11:21:35;4.82;;;1.83;;
13611;SDS011;6877;51.436;6.774;2024-03-02T11:27:02;1.65;;;1.40;;
13611;SDS011;6877;51.436;6.774;2024-03-02T11:34:45;4.95;;;2.63;;
13611;SDS011;6877;51.436;6.774;2024-03-02T11:37:18;3.97;;;1.77;;
13611;SDS011;6877;51.436;6.774;2024-03-02T11:39:54;2.58;;;1.60;;
13611;SDS011;6877;51.436;6.774;2024-03-02T11:42:25;7.28;;;2.00;;
13611;SDS011;6877;51.436;6.774;2024-03-02T11:44:57;2.28;;;1.90;;
13611;SDS011;6877;51.436;6.774;2024-03-02T11:47:23;5.88;;;1.90;;
13611;SDS011;6877;51.436;6.774;2024-03-02T11:49:55;2.85;;;1.92;;
13611;SDS011;6877;51.436;6.774;2024-03-02T11:52:29;1.88;;;1.63;;
13611;SDS011;6877;51.436;6.774;2024-03-02T11:54:56;3.25;;;1.70;;
13611;SDS011;6877;51.436;6.774;2024-03-02T11:57:24;3.63;;;2.63;;
13611;SDS011;6877;51.436;6.774;2024-03-02T11:59:51;1.85;;;1.75;;
13611;SDS011;6877;51.436;6.774;2024-03-02T12:02:22;2.60;;;1.92;;
13611;SDS011;6877;51.436;6.774;2024-03-02T12:04:49;2.38;;;1.63;;
13611;SDS011;6877;51.436;6.774;2024-03-02T12:07:19;3.40;;;1.98;;
13611;SDS011;6877;51.436;6.774;2024-03-02T12:09:48;2.15;;;1.63;;
13611;SDS011;6877;51.436;6.774;2024-03-02T12:12:16;1.95;;;1.45;;
13611;SDS011;6877;51.436;6.774;2024-03-02T12:14:51;3.08;;;2.10;;
13611;SDS011;6877;51.436;6.774;2024-03-02T12:17:26;3.95;;;2.05;;
13611;SDS011;6877;51.436;6.774;2024-03-02T12:19:57;3.75;;;1.50;;
13611;SDS011;6877;51.436;6.774;2024-03-02T12:22:29;1.85;;;1.70;;
13611;SDS011;6877;51.436;6.774;2024-03-02T12:24:55;1.77;;;1.55;;
13611;SDS011;6877;51.436;6.774;2024-03-02T12:27:27;5.80;;;2.10;;
13611;SDS011;6877;51.436;6.774;2024-03-02T12:29:53;1.90;;;1.38;;
13611;SDS011;6877;51.436;6.774;2024-03-02T12:32:24;2.10;;;1.90;;
13611;SDS011;6877;51.436;6.774;2024-03-02T12:34:51;2.63;;;2.22;;
13611;SDS011;6877;51.436;6.774;2024-03-02T12:37:21;2.45;;;2.00;;
13611;SDS011;6877;51.436;6.774;2024-03-02T12:39:48;3.08;;;1.60;;
13611;SDS011;6877;51.436;6.774;2024-03-02T12:42:14;2.70;;;1.80;;
13611;SDS011;6877;51.436;6.774;2024-03-02T12:44:46;2.65;;;1.85;;
13611;SDS011;6877;51.436;6.774;2024-03-02T12:47:17;2.03;;;1.58;;
13611;SDS011;6877;51.436;6.774;2024-03-02T12:49:48;5.55;;;1.50;;
13611;SDS011;6877;51.436;6.774;2024-03-02T12:52:24;1.80;;;1.65;;
13611;SDS011;6877;51.436;6.774;2024-03-02T12:54:56;2.78;;;1.55;;
13611;SDS011;6877;51.436;6.774;2024-03-02T12:57:29;2.47;;;1.85;;
13611;SDS011;6877;51.436;6.774;2024-03-02T13:00:05;1.92;;;1.63;;
13611;SDS011;6877;51.436;6.774;2024-03-02T13:02:40;4.47;;;2.05;;
13611;SDS011;6877;51.436;6.774;2024-03-02T13:05:13;3.15;;;1.83;;
13611;SDS011;6877;51.436;6.774;2024-03-02T13:07:39;7.70;;;1.65;;
13611;SDS011;6877;51.436;6.774;2024-03-02T13:10:11;3.80;;;1.73;;
13611;SDS011;6877;51.436;6.774;2024-03-02T13:12:46;3.00;;;2.00;;
13611;SDS011;6877;51.436;6.774;2024-03-02T13:15:17;2.10;;;1.52;;
13611;SDS011;6877;51.436;6.774;2024-03-02T13:17:49;3.80;;;2.00;;
13611;SDS011;6877;51.436;6.774;2024-03-02T13:20:30;2.40;;;1.83;;
13611;SDS011;6877;51.436;6.774;2024-03-02T13:23:06;2.03;;;1.52;;
13611;SDS011;6877;51.436;6.774;2024-03-02T13:25:32;6.00;;;2.50;;
13611;SDS011;6877;51.436;6.774;2024-03-02T13:28:04;2.80;;;1.50;;
13611;SDS011;6877;51.436;6.774;2024-03-02T13:30:31;3.15;;;1.77;;
13611;SDS011;6877;51.436;6.774;2024-03-02T13:33:03;1.73;;;1.40;;
13611;SDS011;6877;51.436;6.774;2024-03-02T13:35:30;2.70;;;1.70;;
13611;SDS011;6877;51.436;6.774;2024-03-02T13:38:02;5.30;;;1.50;;
13611;SDS011;6877;51.436;6.774;2024-03-02T13:40:31;1.45;;;1.35;;
13611;SDS011;6877;51.436;6.774;2024-03-02T13:43:02;4.28;;;1.95;;
13611;SDS011;6877;51.436;6.774;2024-03-02T13:45:29;2.50;;;1.48;;
13611;SDS011;6877;51.436;6.774;2024-03-02T13:48:00;3.00;;;1.52;;
13611;SDS011;6877;51.436;6.774;2024-03-02T13:50:29;2.55;;;1.20;;
13611;SDS011;6877;51.436;6.774;2024-03-02T13:53:01;1.85;;;1.30;;
13611;SDS011;6877;51.436;6.774;2024-03-02T13:55:34;1.80;;;1.70;;
13611;SDS011;6877;51.436;6.774;2024-03-02T13:58:00;2.13;;;1.92;;
13611;SDS011;6877;51.436;6.774;2024-03-02T14:00:27;2.28;;;1.50;;
13611;SDS011;6877;51.436;6.774;2024-03-02T14:02:58;1.00;;;1.00;;
13611;SDS011;6877;51.436;6.774;2024-03-02T14:05:29;4.28;;;1.58;;
13611;SDS011;6877;51.436;6.774;2024-03-02T14:08:00;1.67;;;1.50;;
13611;SDS011;6877;51.436;6.774;2024-03-02T14:10:30;2.15;;;1.50;;
13611;SDS011;6877;51.436;6.774;2024-03-02T14:13:01;1.52;;;1.42;;
13611;SDS011;6877;51.436;6.774;2024-03-02T14:15:28;4.97;;;1.98;;
13611;SDS011;6877;51.436;6.774;2024-03-02T14:17:56;1.38;;;1.27;;
13611;SDS011;6877;51.436;6.774;2024-03-02T14:20:27;2.85;;;1.65;;
13611;SDS011;6877;51.436;6.774;2024-03-02T14:22:59;2.28;;;1.33;;
13611;SDS011;6877;51.436;6.774;2024-03-02T14:25:30;3.03;;;1.70;;
13611;SDS011;6877;51.436;6.774;2024-03-02T14:28:04;3.67;;;1.40;;
13611;SDS011;6877;51.436;6.774;2024-03-02T14:30:31;1.60;;;1.33;;
13611;SDS011;6877;51.436;6.774;2024-03-02T14:32:57;4.25;;;1.50;;
13611;SDS011;6877;51.436;6.774;2024-03-02T14:35:29;1.73;;;1.20;;
13611;SDS011;6877;51.436;6.774;2024-03-02T14:37:55;1.40;;;1.30;;
13611;SDS011;6877;51.436;6.774;2024-03-02T14:40:23;5.93;;;1.55;;
13611;SDS011;6877;51.436;6.774;2024-03-02T14:42:53;2.63;;;1.30;;
13611;SDS011;6877;51.436;6.774;2024-03-02T14:45:20;4.82;;;1.63;;
13611;SDS011;6877;51.436;6.774;2024-03-02T14:47:51;2.45;;;1.50;;
13611;SDS011;6877;51.436;6.774;2024-03-02T14:50:18;5.20;;;1.55;;
13611;SDS011;6877;51.436;6.774;2024-03-02T14:52:45;3.00;;;1.42;;
13611;SDS011;6877;51.436;6.774;2024-03-02T14:55:16;3.15;;;1.48;;
13611;SDS011;6877;51.436;6.774;2024-03-02T14:57:43;1.27;;;1.25;;
13611;SDS011;6877;51.436;6.774;2024-03-02T15:00:09;1.38;;;1.30;;
13611;SDS011;6877;51.436;6.774;2024-03-02T15:02:37;3.75;;;1.85;;
13611;SDS011;6877;51.436;6.774;2024-03-02T15:05:09;2.47;;;1.30;;
13611;SDS011;6877;51.436;6.774;2024-03-02T15:07:41;1.45;;;1.15;;
13611;SDS011;6877;51.436;6.774;2024-03-02T15:10:07;2.90;;;1.42;;
13611;SDS011;6877;51.436;6.774;2024-03-02T15:12:39;2.10;;;1.40;;
13611;SDS011;6877;51.436;6.774;2024-03-02T15:15:05;2.33;;;1.75;;
13611;SDS011;6877;51.436;6.774;2024-03-02T15:17:32;1.73;;;1.35;;
13611;SDS011;6877;51.436;6.774;2024-03-02T15:20:04;1.85;;;1.20;;
13611;SDS011;6877;51.436;6.774;2024-03-02T15:22:38;1.20;;;1.10;;
13611;SDS011;6877;51.436;6.774;2024-03-02T15:25:04;1.63;;;1.30;;
13611;SDS011;6877;51.436;6.774;2024-03-02T15:27:31;1.33;;;1.20;;
13611;SDS011;6877;51.436;6.774;2024-03-02T15:30:03;1.52;;;1.27;;
13611;SDS011;6877;51.436;6.774;2024-03-02T15:32:35;1.83;;;1.58;;